sensor_id;sensor_type;location;lat;lon;timestamp;P1;durP1;ratioP1;P2;durP2;ratioP2
8861;SDS011;4799;50.996;4.754;2023-10-08T00:00:46;5.90;;;3.23;;
8861;SDS011;4799;50.996;4.754;2023-10-08T00:03:19;5.30;;;3.70;;
8861;SDS011;4799;50.996;4.754;2023-10-08T00:05:48;4.13;;;3.50;;
8861;SDS011;4799;50.996;4.754;2023-10-08T00:08:16;5.23;;;3.50;;
8861;SDS011;4799;50.996;4.754;2023-10-08T00:10:42;5.77;;;3.83;;
8861;SDS011;4799;50.996;4.754;2023-10-08T00:13:10;4.40;;;2.97;;
8861;SDS011;4799;50.996;4.754;2023-10-08T00:15:38;5.20;;;3.60;;
8861;SDS011;4799;50.996;4.754;2023-10-08T00:18:15;5.03;;;3.60;;
8861;SDS011;4799;50.996;4.754;2023-10-08T00:20:42;5.67;;;3.47;;
8861;SDS011;4799;50.996;4.754;2023-10-08T00:23:13;5.20;;;3.53;;
8861;SDS011;4799;50.996;4.754;2023-10-08T00:25:42;6.43;;;3.60;;
8861;SDS011;4799;50.996;4.754;2023-10-08T00:28:12;5.03;;;3.70;;
8861;SDS011;4799;50.996;4.754;2023-10-08T00:30:42;6.03;;;3.80;;
8861;SDS011;4799;50.996;4.754;2023-10-08T00:33:11;3.93;;;3.30;;
8861;SDS011;4799;50.996;4.754;2023-10-08T00:35:40;5.27;;;3.83;;
8861;SDS011;4799;50.996;4.754;2023-10-08T00:38:07;5.20;;;3.83;;
8861;SDS011;4799;50.996;4.754;2023-10-08T00:40:40;5.07;;;3.47;;
8861;SDS011;4799;50.996;4.754;2023-10-08T00:43:10;5.83;;;3.70;;
8861;SDS011;4799;50.996;4.754;2023-10-08T00:45:53;4.30;;;3.40;;
8861;SDS011;4799;50.996;4.754;2023-10-08T00:48:19;4.77;;;3.77;;
8861;SDS011;4799;50.996;4.754;2023-10-08T00:50:53;5.00;;;3.40;;
8861;SDS011;4799;50.996;4.754;2023-10-08T00:53:34;5.03;;;3.60;;
8861;SDS011;4799;50.996;4.754;2023-10-08T00:56:04;6.83;;;3.80;;
8861;SDS011;4799;50.996;4.754;2023-10-08T00:58:38;6.27;;;3.50;;
8861;SDS011;4799;50.996;4.754;2023-10-08T01:01:05;7.77;;;4.00;;
8861;SDS011;4799;50.996;4.754;2023-10-08T01:03:35;5.57;;;3.77;;
8861;SDS011;4799;50.996;4.754;2023-10-08T01:06:09;5.87;;;3.83;;
8861;SDS011;4799;50.996;4.754;2023-10-08T01:08:36;5.23;;;3.70;;
8861;SDS011;4799;50.996;4.754;2023-10-08T01:14:07;5.30;;;3.97;;
8861;SDS011;4799;50.996;4.754;2023-10-08T01:16:33;5.87;;;3.50;;
8861;SDS011;4799;50.996;4.754;2023-10-08T01:19:00;6.83;;;3.80;;
8861;SDS011;4799;50.996;4.754;2023-10-08T01:21:29;6.10;;;3.90;;
8861;SDS011;4799;50.996;4.754;2023-10-08T01:24:04;6.83;;;4.20;;
8861;SDS011;4799;50.996;4.754;2023-10-08T01:26:35;5.80;;;3.70;;
8861;SDS011;4799;50.996;4.754;2023-10-08T01:29:04;7.73;;;4.00;;
8861;SDS011;4799;50.996;4.754;2023-10-08T01:31:34;6.43;;;3.93;;
8861;SDS011;4799;50.996;4.754;2023-10-08T01:34:01;5.53;;;4.10;;
8861;SDS011;4799;50.996;4.754;2023-10-08T01:36:30;4.87;;;3.50;;
8861;SDS011;4799;50.996;4.754;2023-10-08T01:38:56;5.13;;;3.87;;
8861;SDS011;4799;50.996;4.754;2023-10-08T01:41:23;5.67;;;3.73;;
8861;SDS011;4799;50.996;4.754;2023-10-08T01:43:58;5.03;;;3.70;;
8861;SDS011;4799;50.996;4.754;2023-10-08T01:46:24;6.30;;;3.80;;
8861;SDS011;4799;50.996;4.754;2023-10-08T01:48:53;5.40;;;3.80;;
8861;SDS011;4799;50.996;4.754;2023-10-08T01:51:28;5.57;;;3.90;;
8861;SDS011;4799;50.996;4.754;2023-10-08T01:54:02;5.10;;;3.87;;
8861;SDS011;4799;50.996;4.754;2023-10-08T01:56:29;6.10;;;3.80;;
8861;SDS011;4799;50.996;4.754;2023-10-08T01:58:55;5.53;;;3.93;;
8861;SDS011;4799;50.996;4.754;2023-10-08T02:01:21;5.53;;;3.70;;
8861;SDS011;4799;50.996;4.754;2023-10-08T02:03:47;6.03;;;3.50;;
8861;SDS011;4799;50.996;4.754;2023-10-08T02:06:13;5.30;;;4.03;;
8861;SDS011;4799;50.996;4.754;2023-10-08T02:08:39;5.20;;;3.80;;
8861;SDS011;4799;50.996;4.754;2023-10-08T02:11:04;6.37;;;4.13;;
8861;SDS011;4799;50.996;4.754;2023-10-08T02:13:30;7.17;;;3.80;;
8861;SDS011;4799;50.996;4.754;2023-10-08T02:15:56;6.13;;;3.77;;
8861;SDS011;4799;50.996;4.754;2023-10-08T02:18:23;6.20;;;3.60;;
8861;SDS011;4799;50.996;4.754;2023-10-08T02:20:50;6.70;;;3.70;;
8861;SDS011;4799;50.996;4.754;2023-10-08T02:23:16;4.77;;;3.17;;
8861;SDS011;4799;50.996;4.754;2023-10-08T02:25:43;8.20;;;4.00;;
8861;SDS011;4799;50.996;4.754;2023-10-08T02:28:09;5.90;;;3.80;;
8861;SDS011;4799;50.996;4.754;2023-10-08T02:30:40;6.53;;;3.97;;
8861;SDS011;4799;50.996;4.754;2023-10-08T02:33:07;5.43;;;3.50;;
8861;SDS011;4799;50.996;4.754;2023-10-08T02:35:43;6.17;;;3.80;;
8861;SDS011;4799;50.996;4.754;2023-10-08T02:38:14;7.00;;;3.97;;
8861;SDS011;4799;50.996;4.754;2023-10-08T02:40:42;7.23;;;3.80;;
8861;SDS011;4799;50.996;4.754;2023-10-08T02:43:12;6.00;;;3.80;;
8861;SDS011;4799;50.996;4.754;2023-10-08T02:45:40;5.30;;;3.40;;
8861;SDS011;4799;50.996;4.754;2023-10-08T02:48:10;5.57;;;3.70;;
8861;SDS011;4799;50.996;4.754;2023-10-08T02:50:38;6.17;;;3.90;;
8861;SDS011;4799;50.996;4.754;2023-10-08T02:53:06;5.30;;;3.70;;
8861;SDS011;4799;50.996;4.754;2023-10-08T02:55:39;5.97;;;3.83;;
8861;SDS011;4799;50.996;4.754;2023-10-08T02:58:12;5.77;;;3.60;;
8861;SDS011;4799;50.996;4.754;2023-10-08T03:00:44;5.87;;;3.47;;
8861;SDS011;4799;50.996;4.754;2023-10-08T03:03:12;7.10;;;3.90;;
8861;SDS011;4799;50.996;4.754;2023-10-08T03:05:45;6.40;;;3.70;;
8861;SDS011;4799;50.996;4.754;2023-10-08T03:08:13;6.13;;;4.20;;
8861;SDS011;4799;50.996;4.754;2023-10-08T03:10:44;6.80;;;4.00;;
8861;SDS011;4799;50.996;4.754;2023-10-08T03:13:10;5.70;;;4.07;;
8861;SDS011;4799;50.996;4.754;2023-10-08T03:15:38;4.93;;;3.73;;
8861;SDS011;4799;50.996;4.754;2023-10-08T03:18:11;9.60;;;4.40;;
8861;SDS011;4799;50.996;4.754;2023-10-08T03:20:40;5.43;;;3.57;;
8861;SDS011;4799;50.996;4.754;2023-10-08T03:23:11;5.57;;;4.03;;
8861;SDS011;4799;50.996;4.754;2023-10-08T03:25:49;5.30;;;3.90;;
8861;SDS011;4799;50.996;4.754;2023-10-08T03:28:22;6.30;;;3.83;;
8861;SDS011;4799;50.996;4.754;2023-10-08T03:30:50;6.33;;;3.90;;
8861;SDS011;4799;50.996;4.754;2023-10-08T03:33:17;7.70;;;4.67;;
8861;SDS011;4799;50.996;4.754;2023-10-08T03:35:52;5.47;;;4.10;;
8861;SDS011;4799;50.996;4.754;2023-10-08T03:38:21;4.20;;;3.80;;
8861;SDS011;4799;50.996;4.754;2023-10-08T03:40:56;5.00;;;3.60;;
8861;SDS011;4799;50.996;4.754;2023-10-08T03:43:27;6.43;;;3.80;;
8861;SDS011;4799;50.996;4.754;2023-10-08T03:46:09;4.73;;;3.80;;
8861;SDS011;4799;50.996;4.754;2023-10-08T03:48:41;5.57;;;3.80;;
8861;SDS011;4799;50.996;4.754;2023-10-08T03:51:11;5.17;;;3.90;;
8861;SDS011;4799;50.996;4.754;2023-10-08T03:53:40;7.17;;;4.37;;
8861;SDS011;4799;50.996;4.754;2023-10-08T03:56:27;9.23;;;4.20;;
8861;SDS011;4799;50.996;4.754;2023-10-08T03:58:57;6.47;;;4.30;;
8861;SDS011;4799;50.996;4.754;2023-10-08T04:01:28;5.63;;;4.00;;
8861;SDS011;4799;50.996;4.754;2023-10-08T04:03:58;7.53;;;4.77;;
8861;SDS011;4799;50.996;4.754;2023-10-08T04:06:27;6.10;;;4.00;;
8861;SDS011;4799;50.996;4.754;2023-10-08T04:08:56;5.67;;;3.90;;
8861;SDS011;4799;50.996;4.754;2023-10-08T04:11:35;5.37;;;3.90;;
8861;SDS011;4799;50.996;4.754;2023-10-08T04:14:04;6.90;;;4.33;;
8861;SDS011;4799;50.996;4.754;2023-10-08T04:16:31;5.83;;;4.40;;
8861;SDS011;4799;50.996;4.754;2023-10-08T04:19:02;6.90;;;3.90;;
8861;SDS011;4799;50.996;4.754;2023-10-08T04:21:28;6.83;;;4.30;;
8861;SDS011;4799;50.996;4.754;2023-10-08T04:23:55;8.60;;;4.10;;
8861;SDS011;4799;50.996;4.754;2023-10-08T04:26:22;6.07;;;4.30;;
8861;SDS011;4799;50.996;4.754;2023-10-08T04:28:55;5.23;;;3.90;;
8861;SDS011;4799;50.996;4.754;2023-10-08T04:31:27;7.37;;;4.40;;
8861;SDS011;4799;50.996;4.754;2023-10-08T04:34:08;4.63;;;4.20;;
8861;SDS011;4799;50.996;4.754;2023-10-08T04:36:42;4.87;;;4.00;;
8861;SDS011;4799;50.996;4.754;2023-10-08T04:39:10;6.43;;;4.27;;
8861;SDS011;4799;50.996;4.754;2023-10-08T04:41:41;6.07;;;4.00;;
8861;SDS011;4799;50.996;4.754;2023-10-08T04:44:10;4.93;;;4.33;;
8861;SDS011;4799;50.996;4.754;2023-10-08T04:46:40;5.23;;;4.30;;
8861;SDS011;4799;50.996;4.754;2023-10-08T04:49:12;5.77;;;4.43;;
8861;SDS011;4799;50.996;4.754;2023-10-08T04:51:54;5.33;;;4.30;;
8861;SDS011;4799;50.996;4.754;2023-10-08T04:54:26;7.40;;;4.30;;
8861;SDS011;4799;50.996;4.754;2023-10-08T04:56:56;6.50;;;4.50;;
8861;SDS011;4799;50.996;4.754;2023-10-08T04:59:29;6.63;;;4.53;;
8861;SDS011;4799;50.996;4.754;2023-10-08T05:02:02;6.90;;;4.50;;
8861;SDS011;4799;50.996;4.754;2023-10-08T05:04:38;7.73;;;4.83;;
8861;SDS011;4799;50.996;4.754;2023-10-08T05:07:17;8.83;;;4.70;;
8861;SDS011;4799;50.996;4.754;2023-10-08T05:09:50;6.60;;;4.57;;
8861;SDS011;4799;50.996;4.754;2023-10-08T05:12:34;6.20;;;4.50;;
8861;SDS011;4799;50.996;4.754;2023-10-08T05:15:06;5.77;;;4.50;;
8861;SDS011;4799;50.996;4.754;2023-10-08T05:17:42;8.13;;;4.73;;
8861;SDS011;4799;50.996;4.754;2023-10-08T05:20:23;6.47;;;4.93;;
8861;SDS011;4799;50.996;4.754;2023-10-08T05:23:12;5.20;;;4.27;;
8861;SDS011;4799;50.996;4.754;2023-10-08T05:25:57;7.30;;;4.57;;
8861;SDS011;4799;50.996;4.754;2023-10-08T05:28:34;5.53;;;4.47;;
8861;SDS011;4799;50.996;4.754;2023-10-08T05:31:10;7.90;;;5.00;;
8861;SDS011;4799;50.996;4.754;2023-10-08T05:33:56;7.53;;;4.17;;
8861;SDS011;4799;50.996;4.754;2023-10-08T05:36:28;9.03;;;5.00;;
8861;SDS011;4799;50.996;4.754;2023-10-08T05:39:15;5.87;;;4.30;;
8861;SDS011;4799;50.996;4.754;2023-10-08T05:41:50;6.47;;;4.63;;
8861;SDS011;4799;50.996;4.754;2023-10-08T05:44:17;6.37;;;4.63;;
8861;SDS011;4799;50.996;4.754;2023-10-08T05:46:43;6.30;;;5.07;;
8861;SDS011;4799;50.996;4.754;2023-10-08T05:49:21;7.47;;;4.70;;
8861;SDS011;4799;50.996;4.754;2023-10-08T05:51:56;7.63;;;4.93;;
8861;SDS011;4799;50.996;4.754;2023-10-08T05:54:28;6.90;;;5.17;;
8861;SDS011;4799;50.996;4.754;2023-10-08T05:56:55;6.60;;;5.27;;
8861;SDS011;4799;50.996;4.754;2023-10-08T05:59:31;6.90;;;4.67;;
8861;SDS011;4799;50.996;4.754;2023-10-08T06:02:15;7.03;;;4.97;;
8861;SDS011;4799;50.996;4.754;2023-10-08T06:05:03;6.13;;;5.00;;
8861;SDS011;4799;50.996;4.754;2023-10-08T06:07:52;7.67;;;4.33;;
8861;SDS011;4799;50.996;4.754;2023-10-08T06:10:25;5.20;;;4.70;;
8861;SDS011;4799;50.996;4.754;2023-10-08T06:13:02;6.83;;;4.73;;
8861;SDS011;4799;50.996;4.754;2023-10-08T06:18:31;5.83;;;4.90;;
8861;SDS011;4799;50.996;4.754;2023-10-08T06:20:59;6.60;;;4.70;;
8861;SDS011;4799;50.996;4.754;2023-10-08T06:23:26;6.03;;;4.60;;
8861;SDS011;4799;50.996;4.754;2023-10-08T06:25:54;6.30;;;4.43;;
8861;SDS011;4799;50.996;4.754;2023-10-08T06:28:24;7.80;;;4.93;;
8861;SDS011;4799;50.996;4.754;2023-10-08T06:30:52;8.20;;;4.73;;
8861;SDS011;4799;50.996;4.754;2023-10-08T06:33:19;6.07;;;4.60;;
8861;SDS011;4799;50.996;4.754;2023-10-08T06:35:45;5.13;;;4.63;;
8861;SDS011;4799;50.996;4.754;2023-10-08T06:38:26;5.57;;;4.60;;
8861;SDS011;4799;50.996;4.754;2023-10-08T06:40:56;5.03;;;4.30;;
8861;SDS011;4799;50.996;4.754;2023-10-08T06:43:25;7.13;;;5.23;;
8861;SDS011;4799;50.996;4.754;2023-10-08T06:45:52;6.00;;;4.33;;
8861;SDS011;4799;50.996;4.754;2023-10-08T06:48:18;6.80;;;4.80;;
8861;SDS011;4799;50.996;4.754;2023-10-08T06:50:49;7.23;;;4.97;;
8861;SDS011;4799;50.996;4.754;2023-10-08T06:53:16;6.13;;;4.77;;
8861;SDS011;4799;50.996;4.754;2023-10-08T06:55:46;6.30;;;4.80;;
8861;SDS011;4799;50.996;4.754;2023-10-08T06:58:24;5.93;;;4.50;;
8861;SDS011;4799;50.996;4.754;2023-10-08T07:00:51;7.63;;;4.73;;
8861;SDS011;4799;50.996;4.754;2023-10-08T07:03:17;6.77;;;4.07;;
8861;SDS011;4799;50.996;4.754;2023-10-08T07:05:47;6.20;;;4.60;;
8861;SDS011;4799;50.996;4.754;2023-10-08T07:08:23;7.30;;;4.80;;
8861;SDS011;4799;50.996;4.754;2023-10-08T07:10:51;6.27;;;4.57;;
8861;SDS011;4799;50.996;4.754;2023-10-08T07:13:17;5.87;;;4.40;;
8861;SDS011;4799;50.996;4.754;2023-10-08T07:15:44;6.83;;;4.23;;
8861;SDS011;4799;50.996;4.754;2023-10-08T07:18:11;5.60;;;4.63;;
8861;SDS011;4799;50.996;4.754;2023-10-08T07:20:46;6.50;;;4.30;;
8861;SDS011;4799;50.996;4.754;2023-10-08T07:23:18;6.80;;;4.50;;
8861;SDS011;4799;50.996;4.754;2023-10-08T07:25:51;5.97;;;4.50;;
8861;SDS011;4799;50.996;4.754;2023-10-08T07:28:19;6.80;;;4.53;;
8861;SDS011;4799;50.996;4.754;2023-10-08T07:30:45;8.63;;;4.43;;
8861;SDS011;4799;50.996;4.754;2023-10-08T07:33:11;5.50;;;4.33;;
8861;SDS011;4799;50.996;4.754;2023-10-08T07:35:44;7.03;;;4.70;;
8861;SDS011;4799;50.996;4.754;2023-10-08T07:38:18;6.87;;;4.40;;
8861;SDS011;4799;50.996;4.754;2023-10-08T07:40:46;7.70;;;4.57;;
8861;SDS011;4799;50.996;4.754;2023-10-08T07:43:12;6.80;;;4.90;;
8861;SDS011;4799;50.996;4.754;2023-10-08T07:45:38;5.93;;;4.67;;
8861;SDS011;4799;50.996;4.754;2023-10-08T07:48:05;6.93;;;4.53;;
8861;SDS011;4799;50.996;4.754;2023-10-08T07:50:35;7.97;;;4.63;;
8861;SDS011;4799;50.996;4.754;2023-10-08T07:53:05;8.40;;;5.03;;
8861;SDS011;4799;50.996;4.754;2023-10-08T07:55:31;6.30;;;4.33;;
8861;SDS011;4799;50.996;4.754;2023-10-08T07:57:59;5.40;;;4.30;;
8861;SDS011;4799;50.996;4.754;2023-10-08T08:00:26;7.03;;;4.40;;
8861;SDS011;4799;50.996;4.754;2023-10-08T08:02:55;5.20;;;4.10;;
8861;SDS011;4799;50.996;4.754;2023-10-08T08:05:22;7.63;;;4.60;;
8861;SDS011;4799;50.996;4.754;2023-10-08T08:07:48;7.03;;;5.00;;
8861;SDS011;4799;50.996;4.754;2023-10-08T08:10:18;6.77;;;4.97;;
8861;SDS011;4799;50.996;4.754;2023-10-08T08:12:44;6.23;;;4.97;;
8861;SDS011;4799;50.996;4.754;2023-10-08T08:15:11;6.47;;;5.10;;
8861;SDS011;4799;50.996;4.754;2023-10-08T08:17:41;9.30;;;5.13;;
8861;SDS011;4799;50.996;4.754;2023-10-08T08:20:07;7.40;;;4.50;;
8861;SDS011;4799;50.996;4.754;2023-10-08T08:22:56;6.70;;;5.00;;
8861;SDS011;4799;50.996;4.754;2023-10-08T08:25:22;6.67;;;4.53;;
8861;SDS011;4799;50.996;4.754;2023-10-08T08:28:00;7.87;;;5.27;;
8861;SDS011;4799;50.996;4.754;2023-10-08T08:30:25;8.50;;;5.00;;
8861;SDS011;4799;50.996;4.754;2023-10-08T08:32:52;6.87;;;5.07;;
8861;SDS011;4799;50.996;4.754;2023-10-08T08:35:19;6.97;;;5.47;;
8861;SDS011;4799;50.996;4.754;2023-10-08T08:37:45;6.93;;;4.90;;
8861;SDS011;4799;50.996;4.754;2023-10-08T08:40:15;7.80;;;5.27;;
8861;SDS011;4799;50.996;4.754;2023-10-08T08:42:47;7.43;;;5.60;;
8861;SDS011;4799;50.996;4.754;2023-10-08T08:45:18;7.77;;;5.37;;
8861;SDS011;4799;50.996;4.754;2023-10-08T08:47:45;6.33;;;4.87;;
8861;SDS011;4799;50.996;4.754;2023-10-08T08:50:11;7.43;;;5.23;;
8861;SDS011;4799;50.996;4.754;2023-10-08T08:52:38;7.87;;;5.20;;
8861;SDS011;4799;50.996;4.754;2023-10-08T08:55:05;8.73;;;5.50;;
8861;SDS011;4799;50.996;4.754;2023-10-08T08:57:38;7.80;;;5.77;;
8861;SDS011;4799;50.996;4.754;2023-10-08T09:00:06;9.07;;;5.83;;
8861;SDS011;4799;50.996;4.754;2023-10-08T09:02:39;9.53;;;6.10;;
8861;SDS011;4799;50.996;4.754;2023-10-08T09:05:05;8.63;;;5.43;;
8861;SDS011;4799;50.996;4.754;2023-10-08T09:10:22;11.27;;;5.80;;
8861;SDS011;4799;50.996;4.754;2023-10-08T09:12:52;11.33;;;6.37;;
8861;SDS011;4799;50.996;4.754;2023-10-08T09:15:19;8.83;;;6.23;;
8861;SDS011;4799;50.996;4.754;2023-10-08T09:17:48;8.93;;;6.00;;
8861;SDS011;4799;50.996;4.754;2023-10-08T09:20:14;9.73;;;6.40;;
8861;SDS011;4799;50.996;4.754;2023-10-08T09:22:40;10.77;;;6.37;;
8861;SDS011;4799;50.996;4.754;2023-10-08T09:25:06;8.70;;;6.17;;
8861;SDS011;4799;50.996;4.754;2023-10-08T09:27:32;10.47;;;6.40;;
8861;SDS011;4799;50.996;4.754;2023-10-08T09:29:58;11.63;;;6.80;;
8861;SDS011;4799;50.996;4.754;2023-10-08T09:32:33;8.23;;;6.20;;
8861;SDS011;4799;50.996;4.754;2023-10-08T09:34:59;7.43;;;5.87;;
8861;SDS011;4799;50.996;4.754;2023-10-08T09:37:25;11.70;;;6.40;;
8861;SDS011;4799;50.996;4.754;2023-10-08T09:39:52;10.30;;;6.30;;
8861;SDS011;4799;50.996;4.754;2023-10-08T09:42:21;13.53;;;6.90;;
8861;SDS011;4799;50.996;4.754;2023-10-08T09:44:49;9.90;;;6.50;;
8861;SDS011;4799;50.996;4.754;2023-10-08T09:47:16;10.57;;;6.40;;
8861;SDS011;4799;50.996;4.754;2023-10-08T09:49:59;9.93;;;6.87;;
8861;SDS011;4799;50.996;4.754;2023-10-08T09:52:40;10.37;;;6.43;;
8861;SDS011;4799;50.996;4.754;2023-10-08T09:55:13;9.17;;;6.33;;
8861;SDS011;4799;50.996;4.754;2023-10-08T09:57:42;12.47;;;6.40;;
8861;SDS011;4799;50.996;4.754;2023-10-08T10:00:08;9.67;;;6.37;;
8861;SDS011;4799;50.996;4.754;2023-10-08T10:02:40;11.73;;;6.70;;
8861;SDS011;4799;50.996;4.754;2023-10-08T10:05:11;11.10;;;6.30;;
8861;SDS011;4799;50.996;4.754;2023-10-08T10:07:37;10.50;;;6.53;;
8861;SDS011;4799;50.996;4.754;2023-10-08T10:10:28;10.33;;;6.07;;
8861;SDS011;4799;50.996;4.754;2023-10-08T10:13:03;11.73;;;6.80;;
8861;SDS011;4799;50.996;4.754;2023-10-08T10:15:31;10.07;;;6.17;;
8861;SDS011;4799;50.996;4.754;2023-10-08T10:18:26;10.40;;;6.27;;
8861;SDS011;4799;50.996;4.754;2023-10-08T10:23:44;9.43;;;6.20;;
8861;SDS011;4799;50.996;4.754;2023-10-08T10:31:57;11.13;;;6.60;;
8861;SDS011;4799;50.996;4.754;2023-10-08T10:34:24;11.10;;;6.40;;
8861;SDS011;4799;50.996;4.754;2023-10-08T10:36:56;12.73;;;6.70;;
8861;SDS011;4799;50.996;4.754;2023-10-08T10:39:25;11.77;;;7.53;;
8861;SDS011;4799;50.996;4.754;2023-10-08T10:41:52;10.70;;;6.53;;
8861;SDS011;4799;50.996;4.754;2023-10-08T10:44:22;12.20;;;6.70;;
8861;SDS011;4799;50.996;4.754;2023-10-08T10:46:48;10.80;;;6.47;;
8861;SDS011;4799;50.996;4.754;2023-10-08T10:49:22;8.97;;;6.47;;
8861;SDS011;4799;50.996;4.754;2023-10-08T10:51:56;9.37;;;5.43;;
8861;SDS011;4799;50.996;4.754;2023-10-08T10:54:25;10.80;;;6.07;;
8861;SDS011;4799;50.996;4.754;2023-10-08T10:57:01;9.57;;;6.20;;
8861;SDS011;4799;50.996;4.754;2023-10-08T10:59:42;9.20;;;5.63;;
8861;SDS011;4799;50.996;4.754;2023-10-08T11:02:18;9.87;;;6.00;;
8861;SDS011;4799;50.996;4.754;2023-10-08T11:04:56;10.53;;;6.40;;
8861;SDS011;4799;50.996;4.754;2023-10-08T11:07:33;9.73;;;6.47;;
8861;SDS011;4799;50.996;4.754;2023-10-08T11:09:59;10.70;;;6.10;;
8861;SDS011;4799;50.996;4.754;2023-10-08T11:12:26;10.60;;;6.50;;
8861;SDS011;4799;50.996;4.754;2023-10-08T11:15:08;10.83;;;6.17;;
8861;SDS011;4799;50.996;4.754;2023-10-08T11:17:41;10.10;;;6.00;;
8861;SDS011;4799;50.996;4.754;2023-10-08T11:20:26;9.73;;;5.83;;
8861;SDS011;4799;50.996;4.754;2023-10-08T11:22:52;9.53;;;6.23;;
8861;SDS011;4799;50.996;4.754;2023-10-08T11:25:41;8.90;;;5.63;;
8861;SDS011;4799;50.996;4.754;2023-10-08T11:28:25;9.67;;;6.20;;
8861;SDS011;4799;50.996;4.754;2023-10-08T11:30:52;8.03;;;6.03;;
8861;SDS011;4799;50.996;4.754;2023-10-08T11:33:18;11.83;;;6.43;;
8861;SDS011;4799;50.996;4.754;2023-10-08T11:36:03;11.50;;;6.13;;
8861;SDS011;4799;50.996;4.754;2023-10-08T11:38:43;11.60;;;6.47;;
8861;SDS011;4799;50.996;4.754;2023-10-08T11:41:19;9.73;;;6.17;;
8861;SDS011;4799;50.996;4.754;2023-10-08T11:43:53;10.30;;;6.23;;
8861;SDS011;4799;50.996;4.754;2023-10-08T11:46:31;8.77;;;5.83;;
8861;SDS011;4799;50.996;4.754;2023-10-08T11:49:06;10.60;;;6.33;;
8861;SDS011;4799;50.996;4.754;2023-10-08T11:51:42;13.03;;;6.07;;
8861;SDS011;4799;50.996;4.754;2023-10-08T11:54:09;11.87;;;5.90;;
8861;SDS011;4799;50.996;4.754;2023-10-08T11:56:37;7.90;;;6.27;;
8861;SDS011;4799;50.996;4.754;2023-10-08T11:59:04;10.20;;;6.40;;
8861;SDS011;4799;50.996;4.754;2023-10-08T12:01:37;7.70;;;5.87;;
8861;SDS011;4799;50.996;4.754;2023-10-08T12:04:07;8.17;;;6.03;;
8861;SDS011;4799;50.996;4.754;2023-10-08T12:06:38;11.50;;;6.00;;
8861;SDS011;4799;50.996;4.754;2023-10-08T12:09:11;10.00;;;6.50;;
8861;SDS011;4799;50.996;4.754;2023-10-08T12:11:38;10.17;;;6.70;;
8861;SDS011;4799;50.996;4.754;2023-10-08T12:14:04;8.97;;;5.57;;
8861;SDS011;4799;50.996;4.754;2023-10-08T12:16:31;8.93;;;5.83;;
8861;SDS011;4799;50.996;4.754;2023-10-08T12:19:00;10.17;;;5.87;;
8861;SDS011;4799;50.996;4.754;2023-10-08T12:21:28;11.37;;;6.00;;
8861;SDS011;4799;50.996;4.754;2023-10-08T12:23:57;7.73;;;5.90;;
8861;SDS011;4799;50.996;4.754;2023-10-08T12:26:23;8.23;;;5.80;;
8861;SDS011;4799;50.996;4.754;2023-10-08T12:28:49;9.90;;;6.00;;
8861;SDS011;4799;50.996;4.754;2023-10-08T12:31:16;9.77;;;5.73;;
8861;SDS011;4799;50.996;4.754;2023-10-08T12:33:42;9.97;;;6.33;;
8861;SDS011;4799;50.996;4.754;2023-10-08T12:36:09;8.53;;;6.00;;
8861;SDS011;4799;50.996;4.754;2023-10-08T12:38:36;11.33;;;6.30;;
8861;SDS011;4799;50.996;4.754;2023-10-08T12:41:02;12.20;;;6.30;;
8861;SDS011;4799;50.996;4.754;2023-10-08T12:43:37;9.50;;;5.60;;
8861;SDS011;4799;50.996;4.754;2023-10-08T12:46:17;8.83;;;5.57;;
8861;SDS011;4799;50.996;4.754;2023-10-08T12:48:44;10.83;;;6.20;;
8861;SDS011;4799;50.996;4.754;2023-10-08T12:51:13;10.87;;;6.03;;
8861;SDS011;4799;50.996;4.754;2023-10-08T12:53:40;8.63;;;5.30;;
8861;SDS011;4799;50.996;4.754;2023-10-08T12:56:06;11.30;;;5.83;;
8861;SDS011;4799;50.996;4.754;2023-10-08T12:58:40;8.57;;;6.07;;
8861;SDS011;4799;50.996;4.754;2023-10-08T13:01:09;9.60;;;5.73;;
8861;SDS011;4799;50.996;4.754;2023-10-08T13:03:39;8.53;;;5.50;;
8861;SDS011;4799;50.996;4.754;2023-10-08T13:06:13;10.67;;;6.43;;
8861;SDS011;4799;50.996;4.754;2023-10-08T13:08:59;10.03;;;6.00;;
8861;SDS011;4799;50.996;4.754;2023-10-08T13:11:26;10.07;;;5.53;;
8861;SDS011;4799;50.996;4.754;2023-10-08T13:13:57;10.90;;;5.93;;
8861;SDS011;4799;50.996;4.754;2023-10-08T13:16:23;7.43;;;5.60;;
8861;SDS011;4799;50.996;4.754;2023-10-08T13:18:50;10.17;;;5.80;;
8861;SDS011;4799;50.996;4.754;2023-10-08T13:21:17;10.77;;;6.43;;
8861;SDS011;4799;50.996;4.754;2023-10-08T13:23:50;9.27;;;5.50;;
8861;SDS011;4799;50.996;4.754;2023-10-08T13:26:22;8.47;;;5.30;;
8861;SDS011;4799;50.996;4.754;2023-10-08T13:28:49;9.67;;;5.53;;
8861;SDS011;4799;50.996;4.754;2023-10-08T13:31:15;10.83;;;6.00;;
8861;SDS011;4799;50.996;4.754;2023-10-08T13:33:42;11.57;;;5.27;;
8861;SDS011;4799;50.996;4.754;2023-10-08T13:36:12;9.07;;;5.93;;
8861;SDS011;4799;50.996;4.754;2023-10-08T13:38:39;10.33;;;6.00;;
8861;SDS011;4799;50.996;4.754;2023-10-08T13:41:11;8.37;;;5.77;;
8861;SDS011;4799;50.996;4.754;2023-10-08T13:43:40;10.57;;;5.87;;
8861;SDS011;4799;50.996;4.754;2023-10-08T13:46:11;9.00;;;5.80;;
8861;SDS011;4799;50.996;4.754;2023-10-08T13:48:42;8.60;;;5.97;;
8861;SDS011;4799;50.996;4.754;2023-10-08T13:51:14;8.93;;;5.60;;
8861;SDS011;4799;50.996;4.754;2023-10-08T13:53:51;9.63;;;5.97;;
8861;SDS011;4799;50.996;4.754;2023-10-08T13:56:21;10.13;;;6.50;;
8861;SDS011;4799;50.996;4.754;2023-10-08T13:58:55;9.00;;;6.07;;
8861;SDS011;4799;50.996;4.754;2023-10-08T14:01:29;11.07;;;5.90;;
8861;SDS011;4799;50.996;4.754;2023-10-08T14:03:58;9.93;;;6.23;;
8861;SDS011;4799;50.996;4.754;2023-10-08T14:06:30;9.10;;;6.13;;
8861;SDS011;4799;50.996;4.754;2023-10-08T14:08:56;9.07;;;6.60;;
8861;SDS011;4799;50.996;4.754;2023-10-08T14:11:22;9.57;;;5.90;;
8861;SDS011;4799;50.996;4.754;2023-10-08T14:13:58;9.23;;;5.90;;
8861;SDS011;4799;50.996;4.754;2023-10-08T14:16:27;7.93;;;5.33;;
8861;SDS011;4799;50.996;4.754;2023-10-08T14:18:54;9.83;;;6.10;;
8861;SDS011;4799;50.996;4.754;2023-10-08T14:21:23;10.10;;;6.40;;
8861;SDS011;4799;50.996;4.754;2023-10-08T14:23:50;8.97;;;6.37;;
8861;SDS011;4799;50.996;4.754;2023-10-08T14:26:18;11.63;;;6.10;;
8861;SDS011;4799;50.996;4.754;2023-10-08T14:28:47;9.60;;;6.37;;
8861;SDS011;4799;50.996;4.754;2023-10-08T14:31:18;9.77;;;5.80;;
8861;SDS011;4799;50.996;4.754;2023-10-08T14:33:47;10.53;;;6.33;;
8861;SDS011;4799;50.996;4.754;2023-10-08T14:36:52;9.80;;;5.90;;
8861;SDS011;4799;50.996;4.754;2023-10-08T14:39:36;9.07;;;6.10;;
8861;SDS011;4799;50.996;4.754;2023-10-08T14:42:20;10.47;;;6.37;;
8861;SDS011;4799;50.996;4.754;2023-10-08T14:45:05;9.07;;;5.90;;
8861;SDS011;4799;50.996;4.754;2023-10-08T14:47:36;9.10;;;6.23;;
8861;SDS011;4799;50.996;4.754;2023-10-08T14:50:02;11.53;;;6.33;;
8861;SDS011;4799;50.996;4.754;2023-10-08T14:52:30;10.33;;;6.10;;
8861;SDS011;4799;50.996;4.754;2023-10-08T14:54:58;10.93;;;6.20;;
8861;SDS011;4799;50.996;4.754;2023-10-08T14:57:24;9.63;;;6.63;;
8861;SDS011;4799;50.996;4.754;2023-10-08T14:59:51;8.43;;;6.23;;
8861;SDS011;4799;50.996;4.754;2023-10-08T15:02:18;9.80;;;6.30;;
8861;SDS011;4799;50.996;4.754;2023-10-08T15:04:43;10.10;;;7.00;;
8861;SDS011;4799;50.996;4.754;2023-10-08T15:07:09;7.73;;;6.00;;
8861;SDS011;4799;50.996;4.754;2023-10-08T15:09:43;10.37;;;6.53;;
8861;SDS011;4799;50.996;4.754;2023-10-08T15:12:09;8.63;;;6.27;;
8861;SDS011;4799;50.996;4.754;2023-10-08T15:14:35;9.57;;;6.50;;
8861;SDS011;4799;50.996;4.754;2023-10-08T15:17:03;12.60;;;6.87;;
8861;SDS011;4799;50.996;4.754;2023-10-08T15:19:30;9.80;;;6.50;;
8861;SDS011;4799;50.996;4.754;2023-10-08T15:21:56;8.10;;;6.40;;
8861;SDS011;4799;50.996;4.754;2023-10-08T15:24:23;9.33;;;6.63;;
8861;SDS011;4799;50.996;4.754;2023-10-08T15:26:49;9.43;;;6.13;;
8861;SDS011;4799;50.996;4.754;2023-10-08T15:29:26;9.50;;;6.27;;
8861;SDS011;4799;50.996;4.754;2023-10-08T15:31:52;9.80;;;6.80;;
8861;SDS011;4799;50.996;4.754;2023-10-08T15:34:20;11.93;;;7.40;;
8861;SDS011;4799;50.996;4.754;2023-10-08T15:36:46;10.67;;;6.93;;
8861;SDS011;4799;50.996;4.754;2023-10-08T15:39:12;10.90;;;6.93;;
8861;SDS011;4799;50.996;4.754;2023-10-08T15:41:38;8.33;;;6.13;;
8861;SDS011;4799;50.996;4.754;2023-10-08T15:44:07;10.10;;;7.00;;
8861;SDS011;4799;50.996;4.754;2023-10-08T15:46:33;11.73;;;7.10;;
8861;SDS011;4799;50.996;4.754;2023-10-08T15:49:02;10.53;;;6.63;;
8861;SDS011;4799;50.996;4.754;2023-10-08T15:51:31;13.30;;;6.53;;